createdAt,value
2022-12-26T00:00:25.309Z,60.00
2022-12-26T00:02:51.941Z,59.75
2022-12-26T00:05:18.590Z,60.37
2022-12-26T00:07:45.735Z,60.22
2022-12-26T00:10:12.362Z,60.79
2022-12-26T00:12:38.932Z,61.56
2022-12-26T00:15:05.797Z,60.63
2022-12-26T00:17:32.315Z,60.74
2022-12-26T00:19:59.005Z,60.28
2022-12-26T00:22:25.538Z,60.23
2022-12-26T00:24:52.068Z,60.48
2022-12-26T00:27:18.576Z,60.31
2022-12-26T00:29:47.806Z,59.89
2022-12-26T00:32:14.304Z,59.86
2022-12-26T00:34:40.836Z,60.02
2022-12-26T00:37:07.532Z,59.52
2022-12-26T00:39:34.061Z,60.07
2022-12-26T00:42:00.608Z,59.78
2022-12-26T00:44:27.385Z,58.85
2022-12-26T00:46:54.154Z,58.90
2022-12-26T00:49:20.704Z,59.39
2022-12-26T00:51:47.486Z,59.32
2022-12-26T00:54:14.027Z,59.32
2022-12-26T00:56:40.552Z,58.53
2022-12-26T00:59:07.117Z,58.75
2022-12-26T01:01:34.031Z,59.69
2022-12-26T01:04:01.048Z,60.33
2022-12-26T01:06:27.632Z,59.34
2022-12-26T01:08:54.381Z,59.47
2022-12-26T01:11:40.162Z,59.18
2022-12-26T01:14:16.752Z,59.79
2022-12-26T01:16:45.615Z,59.07
2022-12-26T01:19:13.157Z,59.16
2022-12-26T01:21:39.849Z,59.22
2022-12-26T01:24:07.491Z,59.03
2022-12-26T01:26:34.932Z,58.65
2022-12-26T01:29:01.564Z,59.96
2022-12-26T01:31:28.553Z,59.37
2022-12-26T01:33:55.124Z,59.68
2022-12-26T01:36:21.658Z,59.01
2022-12-26T01:38:48.262Z,58.81
2022-12-26T01:41:19.337Z,59.11
2022-12-26T01:43:52.255Z,58.48
2022-12-26T01:46:24.048Z,58.35
2022-12-26T01:48:51.458Z,58.42
2022-12-26T01:51:21.955Z,58.64
2022-12-26T01:53:54.215Z,59.23
2022-12-26T01:56:29.452Z,59.13
2022-12-26T01:59:07.121Z,58.86
2022-12-26T02:01:37.553Z,58.31
2022-12-26T02:04:27.725Z,59.10
2022-12-26T02:06:54.937Z,58.20
2022-12-26T02:09:21.767Z,58.52
2022-12-26T02:12:33.960Z,58.39
2022-12-26T02:14:43.680Z,57.67
2022-12-26T02:17:11.213Z,58.35
2022-12-26T02:19:45.091Z,57.69
2022-12-26T02:22:37.861Z,57.63
2022-12-26T02:25:23.228Z,57.97
2022-12-26T02:28:20.045Z,58.51
2022-12-26T02:30:58.825Z,58.38
2022-12-26T02:33:44.167Z,59.30
2022-12-26T02:36:44.977Z,59.01
2022-12-26T02:39:46.689Z,59.46
2022-12-26T02:42:36.240Z,58.74
2022-12-26T02:45:35.416Z,58.58
2022-12-26T02:48:17.209Z,60.03
2022-12-26T02:51:15.163Z,59.17
2022-12-26T02:54:12.001Z,60.18
2022-12-26T02:57:02.045Z,58.96
2022-12-26T02:59:57.421Z,58.98
2022-12-26T03:02:45.618Z,59.32
2022-12-26T03:05:43.510Z,59.04
2022-12-26T03:08:32.323Z,59.68
2022-12-26T03:11:17.666Z,59.96
2022-12-26T03:13:45.633Z,59.20
2022-12-26T03:16:33.272Z,59.23
2022-12-26T03:19:06.042Z,60.07
2022-12-26T03:21:40.496Z,59.69
2022-12-26T03:24:12.233Z,59.87
2022-12-26T03:26:47.550Z,59.32
2022-12-26T03:29:36.305Z,59.63
2022-12-26T03:32:06.223Z,59.23
2022-12-26T03:34:35.050Z,59.05
2022-12-26T03:37:08.021Z,59.07
2022-12-26T03:40:35.424Z,59.68
2022-12-26T03:43:36.037Z,60.05
2022-12-26T03:46:36.301Z,61.03
2022-12-26T03:49:48.528Z,60.58
2022-12-26T03:52:44.893Z,60.61
2022-12-26T03:55:54.626Z,61.07
2022-12-26T03:58:57.185Z,61.25
2022-12-26T04:01:48.456Z,61.11
2022-12-26T04:04:35.580Z,60.98
2022-12-26T04:07:33.535Z,61.49
2022-12-26T04:10:28.066Z,62.70
2022-12-26T04:13:15.085Z,62.51
2022-12-26T04:16:14.701Z,63.15
2022-12-26T04:19:18.093Z,63.98
2022-12-26T04:22:41.683Z,63.12
2022-12-26T04:25:50.689Z,63.42
2022-12-26T04:28:39.885Z,62.96
2022-12-26T04:31:36.012Z,64.25
2022-12-26T04:34:27.603Z,63.94
2022-12-26T04:37:20.108Z,64.06
2022-12-26T04:40:09.325Z,63.14
2022-12-26T04:42:56.851Z,63.30
2022-12-26T04:45:24.151Z,64.30
2022-12-26T04:48:10.262Z,64.08
2022-12-26T04:50:36.829Z,65.93
2022-12-26T04:53:03.863Z,66.88
2022-12-26T04:55:32.951Z,65.33
2022-12-26T04:57:59.594Z,64.58
2022-12-26T05:00:28.195Z,64.31
2022-12-26T05:03:29.203Z,64.50
2022-12-26T05:06:14.217Z,63.68
2022-12-26T05:09:02.554Z,65.44
2022-12-26T05:11:31.272Z,64.58
2022-12-26T05:13:58.940Z,65.38
2022-12-26T05:16:46.380Z,64.48
2022-12-26T05:19:35.841Z,64.61
2022-12-26T05:22:23.167Z,64.32
2022-12-26T05:25:09.142Z,64.13
2022-12-26T05:27:58.436Z,63.79
2022-12-26T05:30:25.881Z,64.92
2022-12-26T05:33:11.216Z,65.18
2022-12-26T05:35:38.956Z,65.12
2022-12-26T05:38:06.238Z,65.17
2022-12-26T05:40:32.802Z,66.09
2022-12-26T05:43:00.216Z,64.89
2022-12-26T05:45:27.226Z,64.52
2022-12-26T05:48:03.386Z,64.25
2022-12-26T05:50:29.992Z,65.26
2022-12-26T05:52:58.023Z,64.70
2022-12-26T05:55:25.792Z,64.83
2022-12-26T05:57:52.338Z,64.57
2022-12-26T06:00:19.484Z,64.75
2022-12-26T06:02:46.407Z,64.83
2022-12-26T06:05:13.109Z,65.60
2022-12-26T06:07:39.600Z,65.30
2022-12-26T06:10:06.835Z,65.69
2022-12-26T06:12:34.635Z,65.95
2022-12-26T06:15:02.586Z,65.72
2022-12-26T06:17:29.259Z,64.89
2022-12-26T06:19:56.726Z,63.98
2022-12-26T06:22:23.673Z,64.28
2022-12-26T06:24:50.627Z,63.27
2022-12-26T06:27:17.168Z,63.48
2022-12-26T06:29:43.681Z,64.58
2022-12-26T06:32:10.215Z,63.42
2022-12-26T06:34:36.752Z,63.10
2022-12-26T06:37:03.306Z,64.07
2022-12-26T06:39:30.215Z,63.11
2022-12-26T06:41:56.953Z,64.12
2022-12-26T06:44:23.467Z,64.54
2022-12-26T06:46:51.489Z,64.22
2022-12-26T06:49:18.464Z,64.30
2022-12-26T06:51:45.065Z,63.46
2022-12-26T06:54:11.634Z,63.26
2022-12-26T06:56:38.425Z,63.18
2022-12-26T06:59:07.238Z,62.58
2022-12-26T07:01:35.190Z,62.09
2022-12-26T07:04:02.293Z,64.36
2022-12-26T07:06:37.273Z,63.26
2022-12-26T07:09:11.234Z,63.50
2022-12-26T07:11:40.149Z,63.91
2022-12-26T07:14:08.422Z,63.04
2022-12-26T07:16:36.628Z,61.82
2022-12-26T07:19:03.631Z,62.28
2022-12-26T07:21:34.837Z,62.77
2022-12-26T07:24:04.963Z,62.78
2022-12-26T07:26:31.500Z,62.76
2022-12-26T07:28:59.544Z,61.75
2022-12-26T07:31:28.218Z,61.11
2022-12-26T07:33:57.075Z,61.10
2022-12-26T07:36:25.215Z,60.96
2022-12-26T07:38:52.105Z,61.39
2022-12-26T07:41:37.233Z,60.97
2022-12-26T07:44:06.072Z,60.14
2022-12-26T07:46:33.219Z,60.35
2022-12-26T07:49:00.100Z,60.41
2022-12-26T07:51:27.129Z,60.32
2022-12-26T07:53:53.683Z,60.50
2022-12-26T07:56:20.395Z,60.16
2022-12-26T07:58:50.944Z,60.04
2022-12-26T08:01:18.502Z,60.18
2022-12-26T08:03:49.439Z,60.25
2022-12-26T08:06:17.411Z,61.12
2022-12-26T08:08:50.413Z,60.80
2022-12-26T08:11:20.674Z,60.44
2022-12-26T08:13:47.977Z,60.59
2022-12-26T08:16:15.621Z,61.15
2022-12-26T08:18:42.957Z,60.58
2022-12-26T08:21:10.772Z,60.13
2022-12-26T08:23:38.042Z,60.67
2022-12-26T08:26:10.228Z,60.92
2022-12-26T08:28:37.159Z,61.04
2022-12-26T08:31:08.211Z,61.62
2022-12-26T08:33:36.331Z,62.61
2022-12-26T08:36:09.354Z,62.12
2022-12-26T08:38:38.777Z,63.29
2022-12-26T08:41:06.172Z,63.57
2022-12-26T08:43:58.431Z,62.92
2022-12-26T08:46:21.311Z,63.17
2022-12-26T08:48:51.822Z,63.66
2022-12-26T08:51:21.907Z,63.83
2022-12-26T08:53:49.647Z,64.86
2022-12-26T08:56:20.802Z,64.02
2022-12-26T08:58:48.345Z,62.71
2022-12-26T09:01:24.268Z,62.84
2022-12-26T09:04:00.548Z,63.54
2022-12-26T09:06:29.122Z,64.06
2022-12-26T09:08:55.730Z,64.51
2022-12-26T09:11:28.917Z,64.10
2022-12-26T09:13:58.153Z,64.14
2022-12-26T09:16:31.515Z,63.58
2022-12-26T09:19:01.438Z,63.82
2022-12-26T09:21:29.897Z,65.51
2022-12-26T09:24:01.685Z,63.76
2022-12-26T09:26:29.205Z,63.65
2022-12-26T09:28:55.867Z,64.06
2022-12-26T09:31:25.073Z,64.62
2022-12-26T09:33:53.704Z,64.41
2022-12-26T09:36:26.351Z,64.05
2022-12-26T09:38:54.979Z,63.40
2022-12-26T09:41:58.492Z,63.13
2022-12-26T09:44:28.096Z,62.48
2022-12-26T09:47:17.899Z,62.60
2022-12-26T09:49:59.133Z,63.60
2022-12-26T09:52:49.758Z,63.59
2022-12-26T09:55:46.803Z,63.25
2022-12-26T09:58:33.472Z,62.24
2022-12-26T10:01:30.003Z,63.53
2022-12-26T10:03:58.434Z,63.62
2022-12-26T10:06:37.322Z,62.88
2022-12-26T10:09:27.475Z,63.63
2022-12-26T10:12:06.288Z,63.54
2022-12-26T10:14:38.816Z,64.26
2022-12-26T10:17:26.531Z,63.08
2022-12-26T10:20:02.278Z,64.19
2022-12-26T10:22:55.903Z,63.56
2022-12-26T10:25:38.645Z,62.26
2022-12-26T10:28:10.806Z,63.27
2022-12-26T10:30:41.829Z,61.41
2022-12-26T10:33:22.467Z,61.85
2022-12-26T10:35:49.319Z,61.17
2022-12-26T10:38:32.516Z,62.48
2022-12-26T10:41:08.165Z,62.45
2022-12-26T10:43:35.412Z,62.61
2022-12-26T10:46:30.233Z,63.75
2022-12-26T10:48:57.090Z,62.47
2022-12-26T10:51:25.186Z,61.15
2022-12-26T10:53:53.955Z,61.33
2022-12-26T10:56:22.142Z,60.95
2022-12-26T10:58:59.920Z,59.26
2022-12-26T11:01:38.195Z,59.42
2022-12-26T11:04:18.894Z,58.98
2022-12-26T11:06:52.426Z,60.27
2022-12-26T11:09:40.103Z,60.81
2022-12-26T11:12:22.832Z,61.03
2022-12-26T11:14:56.849Z,61.02
2022-12-26T11:17:33.425Z,59.75
2022-12-26T11:20:16.103Z,60.38
2022-12-26T11:22:44.113Z,60.61
2022-12-26T11:25:10.780Z,60.21
2022-12-26T11:27:42.236Z,60.94
2022-12-26T11:30:14.989Z,61.46
2022-12-26T11:32:47.273Z,61.05
2022-12-26T11:35:26.987Z,62.37
2022-12-26T11:37:56.846Z,61.92
2022-12-26T11:40:38.509Z,62.43
2022-12-26T11:43:15.114Z,61.84
2022-12-26T11:45:48.813Z,61.58
2022-12-26T11:48:24.834Z,62.36
2022-12-26T11:50:52.195Z,62.33
2022-12-26T11:53:21.972Z,63.15
2022-12-26T11:56:06.073Z,62.53
2022-12-26T11:58:36.001Z,63.45
2022-12-26T12:01:06.413Z,63.97
2022-12-26T12:03:49.696Z,64.23
2022-12-26T12:06:37.158Z,63.25
2022-12-26T12:09:06.589Z,63.36
2022-12-26T12:12:00.667Z,62.64
2022-12-26T12:14:52.476Z,63.40
2022-12-26T12:17:32.536Z,62.78
2022-12-26T12:20:06.829Z,63.30
2022-12-26T12:22:45.346Z,62.14
2022-12-26T12:25:30.913Z,61.98
2022-12-26T12:28:10.241Z,61.77
2022-12-26T12:30:45.603Z,62.46
2022-12-26T12:33:35.899Z,63.65
2022-12-26T12:36:11.716Z,64.34
2022-12-26T12:38:58.373Z,65.03
2022-12-26T12:41:43.441Z,65.05
2022-12-26T12:44:21.397Z,64.66
2022-12-26T12:47:11.753Z,65.56
2022-12-26T12:50:23.506Z,66.53
2022-12-26T12:53:27.049Z,66.63
2022-12-26T12:56:23.731Z,65.69
2022-12-26T12:59:05.431Z,65.36
2022-12-26T13:01:39.762Z,65.69
2022-12-26T13:04:15.835Z,64.68
2022-12-26T13:06:53.016Z,64.63
2022-12-26T13:09:29.116Z,66.08
2022-12-26T13:12:02.392Z,65.63
2022-12-26T13:14:44.178Z,65.78
2022-12-26T13:17:53.355Z,64.83
2022-12-26T13:20:34.328Z,64.62
2022-12-26T13:23:25.102Z,65.58
2022-12-26T13:26:10.098Z,64.70
2022-12-26T13:28:48.811Z,63.72
2022-12-26T13:31:15.606Z,64.32
2022-12-26T13:33:44.115Z,64.82
2022-12-26T13:36:47.856Z,64.99
2022-12-26T13:39:27.723Z,63.45
2022-12-26T13:42:35.596Z,64.35
2022-12-26T13:45:47.521Z,62.50
2022-12-26T13:48:17.170Z,60.72
2022-12-26T13:51:01.374Z,60.11
2022-12-26T13:53:33.349Z,59.00
2022-12-26T13:56:02.734Z,58.75
2022-12-26T13:58:32.020Z,57.58
2022-12-26T14:01:05.111Z,58.07
2022-12-26T14:03:48.244Z,58.19
2022-12-26T14:06:35.642Z,58.06
2022-12-26T14:09:16.884Z,58.28
2022-12-26T14:12:00.042Z,59.20
2022-12-26T14:15:05.617Z,57.98
2022-12-26T14:17:51.865Z,57.13
2022-12-26T14:20:39.478Z,57.71
2022-12-26T14:23:45.621Z,57.67
2022-12-26T14:26:31.172Z,58.81
2022-12-26T14:29:17.407Z,59.20
2022-12-26T14:31:58.457Z,59.13
2022-12-26T14:34:42.604Z,59.94
2022-12-26T14:37:41.168Z,61.10
2022-12-26T14:40:57.949Z,59.96
2022-12-26T14:43:39.669Z,59.58
2022-12-26T14:46:31.589Z,59.61
2022-12-26T14:49:17.773Z,59.87
2022-12-26T14:51:45.033Z,59.46
2022-12-26T14:54:22.124Z,59.17
2022-12-26T14:56:50.629Z,60.20
2022-12-26T14:59:29.655Z,59.37
2022-12-26T15:02:11.366Z,58.42
2022-12-26T15:05:08.305Z,58.74
2022-12-26T15:08:07.504Z,58.14
2022-12-26T15:10:58.372Z,57.22
2022-12-26T15:13:57.471Z,57.05
2022-12-26T15:16:42.290Z,58.23
2022-12-26T15:20:06.162Z,59.05
2022-12-26T15:23:12.659Z,58.47
2022-12-26T15:26:09.468Z,57.40
2022-12-26T15:29:14.539Z,57.38
2022-12-26T15:31:50.902Z,58.11
2022-12-26T15:34:36.629Z,57.27
2022-12-26T15:37:38.047Z,57.12
2022-12-26T15:40:22.631Z,58.08
2022-12-26T15:43:35.373Z,57.70
2022-12-26T15:46:20.875Z,57.31
2022-12-26T15:49:06.676Z,57.04
2022-12-26T15:51:56.278Z,56.98
2022-12-26T15:55:00.354Z,55.81
2022-12-26T15:57:54.373Z,55.82
2022-12-26T16:00:23.955Z,55.46
2022-12-26T16:03:12.886Z,54.47
2022-12-26T16:05:52.556Z,53.82
2022-12-26T16:08:36.113Z,53.19
2022-12-26T16:11:22.936Z,53.02
2022-12-26T16:13:59.252Z,52.85
2022-12-26T16:16:37.730Z,51.76
2022-12-26T16:19:22.963Z,51.88
2022-12-26T16:22:20.257Z,51.79
2022-12-26T16:24:51.307Z,51.04
2022-12-26T16:27:21.961Z,50.94
2022-12-26T16:29:52.873Z,50.44
2022-12-26T16:32:21.999Z,50.50
2022-12-26T16:34:49.453Z,49.96
2022-12-26T16:37:23.481Z,49.98
2022-12-26T16:40:17.723Z,49.43
2022-12-26T16:42:56.076Z,49.12
2022-12-26T16:45:23.482Z,48.90
2022-12-26T16:47:50.668Z,48.90
2022-12-26T16:50:21.736Z,48.74
2022-12-26T16:52:49.594Z,49.29
2022-12-26T16:55:35.783Z,49.08
2022-12-26T16:58:12.948Z,49.00
2022-12-26T17:00:40.125Z,49.58
2022-12-26T17:03:17.818Z,49.12
2022-12-26T17:05:46.954Z,48.82
2022-12-26T17:08:15.501Z,48.89
2022-12-26T17:10:48.735Z,48.66
2022-12-26T17:13:20.948Z,48.57
2022-12-26T17:16:01.863Z,48.32
2022-12-26T17:18:41.795Z,48.52
2022-12-26T17:21:23.793Z,48.05
2022-12-26T17:24:02.376Z,47.66
2022-12-26T17:26:30.529Z,48.89
2022-12-26T17:28:57.336Z,48.35
2022-12-26T17:31:44.431Z,48.69
2022-12-26T17:34:26.175Z,48.59
2022-12-26T17:39:41.441Z,49.05
2022-12-26T17:42:08.021Z,49.03
2022-12-26T17:44:38.741Z,48.82
2022-12-26T17:47:27.039Z,49.54
2022-12-26T17:49:54.823Z,49.22
2022-12-26T17:52:25.073Z,50.25
2022-12-26T17:54:53.163Z,49.72
2022-12-26T17:57:23.939Z,50.24
2022-12-26T17:59:52.458Z,51.98
2022-12-26T18:02:20.585Z,50.78
2022-12-26T18:04:47.670Z,50.61
2022-12-26T18:07:18.170Z,50.63
2022-12-26T18:09:45.500Z,51.45
2022-12-26T18:12:13.985Z,51.58
2022-12-26T18:14:40.694Z,51.62
2022-12-26T18:17:08.586Z,51.47
2022-12-26T18:19:36.610Z,51.00
2022-12-26T18:22:03.291Z,50.90
2022-12-26T18:24:31.032Z,50.78
2022-12-26T18:26:57.837Z,51.48
2022-12-26T18:29:24.751Z,52.28
2022-12-26T18:31:51.332Z,52.46
2022-12-26T18:34:18.266Z,52.32
2022-12-26T18:36:45.382Z,52.86
2022-12-26T18:39:15.189Z,52.79
2022-12-26T18:41:42.372Z,53.30
2022-12-26T18:44:09.368Z,53.16
2022-12-26T18:46:36.459Z,53.88
2022-12-26T18:49:03.366Z,54.28
2022-12-26T18:51:29.982Z,54.73
2022-12-26T18:53:56.944Z,54.73
2022-12-26T18:56:23.547Z,55.46
2022-12-26T18:58:57.410Z,55.38
2022-12-26T19:01:25.285Z,55.99
2022-12-26T19:03:53.650Z,56.33
2022-12-26T19:06:25.558Z,54.81
2022-12-26T19:08:52.396Z,55.07
2022-12-26T19:11:19.288Z,55.81
2022-12-26T19:13:45.901Z,55.41
2022-12-26T19:16:12.763Z,54.71
2022-12-26T19:18:39.582Z,54.47
2022-12-26T19:21:11.416Z,54.35
2022-12-26T19:23:37.996Z,54.58
2022-12-26T19:26:15.792Z,53.85
2022-12-26T19:28:42.348Z,55.77
2022-12-26T19:31:11.212Z,55.51
2022-12-26T19:33:38.211Z,56.14
2022-12-26T19:36:06.384Z,55.01
2022-12-26T19:38:33.055Z,55.52
2022-12-26T19:41:08.289Z,56.01
2022-12-26T19:43:35.023Z,57.52
2022-12-26T19:46:04.889Z,56.38
2022-12-26T19:48:33.157Z,56.34
2022-12-26T19:51:05.068Z,57.04
2022-12-26T19:53:32.877Z,56.36
2022-12-26T19:55:59.797Z,55.82
2022-12-26T19:58:29.790Z,56.35
2022-12-26T20:01:05.724Z,56.89
2022-12-26T20:03:32.592Z,56.73
2022-12-26T20:06:00.701Z,57.43
2022-12-26T20:08:27.244Z,56.28
2022-12-26T20:11:00.519Z,57.64
2022-12-26T20:13:27.342Z,57.70
2022-12-26T20:15:53.859Z,56.85
2022-12-26T20:18:20.370Z,56.18
2022-12-26T20:20:54.622Z,56.32
2022-12-26T20:23:21.217Z,57.17
2022-12-26T20:25:47.776Z,56.93
2022-12-26T20:28:14.420Z,57.71
2022-12-26T20:30:41.001Z,58.33
2022-12-26T20:33:07.653Z,59.88
2022-12-26T20:35:34.441Z,59.39
2022-12-26T20:38:01.025Z,58.44
2022-12-26T20:40:27.984Z,58.44
2022-12-26T20:42:54.504Z,58.59
2022-12-26T20:45:20.999Z,58.14
2022-12-26T20:47:47.516Z,58.64
2022-12-26T20:50:16.763Z,58.72
2022-12-26T20:52:43.300Z,58.69
2022-12-26T20:55:10.104Z,58.23
2022-12-26T20:57:36.655Z,57.64
2022-12-26T21:00:03.860Z,58.29
2022-12-26T21:02:30.942Z,58.70
2022-12-26T21:04:59.964Z,58.83
2022-12-26T21:07:26.716Z,59.56
2022-12-26T21:09:53.777Z,59.46
2022-12-26T21:12:20.325Z,60.31
2022-12-26T21:14:46.857Z,58.54
2022-12-26T21:17:17.889Z,59.50
2022-12-26T21:19:45.387Z,57.37
2022-12-26T21:22:11.894Z,58.24
2022-12-26T21:24:38.400Z,58.91
2022-12-26T21:27:05.545Z,58.06
2022-12-26T21:29:33.762Z,58.99
2022-12-26T21:32:02.525Z,58.40
2022-12-26T21:34:31.698Z,57.89
2022-12-26T21:37:18.054Z,58.69
2022-12-26T21:39:45.240Z,59.57
2022-12-26T21:42:12.037Z,59.66
2022-12-26T21:44:38.694Z,58.81
2022-12-26T21:47:07.979Z,57.96
2022-12-26T21:49:35.100Z,58.10
2022-12-26T21:52:01.701Z,58.53
2022-12-26T21:54:49.376Z,58.29
2022-12-26T21:57:17.125Z,59.51
2022-12-26T21:59:57.074Z,59.10
2022-12-26T22:03:02.688Z,58.79
2022-12-26T22:05:34.309Z,60.09
2022-12-26T22:08:01.666Z,59.54
2022-12-26T22:10:50.849Z,58.89
2022-12-26T22:13:18.641Z,58.26
2022-12-26T22:16:05.667Z,57.30
2022-12-26T22:18:58.485Z,58.06
2022-12-26T22:21:25.417Z,57.40
2022-12-26T22:23:52.656Z,58.31
2022-12-26T22:26:21.945Z,58.27
2022-12-26T22:28:49.646Z,58.54
2022-12-26T22:31:20.048Z,58.44
2022-12-26T22:33:47.737Z,57.35
2022-12-26T22:36:14.406Z,58.01
2022-12-26T22:38:41.046Z,58.60
2022-12-26T22:41:07.933Z,58.97
2022-12-26T22:43:35.394Z,58.22
2022-12-26T22:46:02.158Z,59.05
2022-12-26T22:48:28.809Z,60.21
2022-12-26T22:50:55.740Z,59.51
2022-12-26T22:53:24.594Z,58.27
2022-12-26T22:55:57.656Z,58.31
2022-12-26T22:58:25.981Z,59.02
2022-12-26T23:00:52.493Z,58.08
2022-12-26T23:03:19.998Z,58.80
2022-12-26T23:05:47.572Z,59.35
2022-12-26T23:08:18.756Z,59.61
2022-12-26T23:10:46.655Z,60.21
2022-12-26T23:13:15.028Z,60.31
2022-12-26T23:16:04.801Z,60.44
2022-12-26T23:19:14.152Z,58.55
2022-12-26T23:21:44.146Z,58.89
2022-12-26T23:24:18.650Z,58.91
2022-12-26T23:27:17.621Z,59.50
2022-12-26T23:30:02.971Z,58.36
2022-12-26T23:32:30.377Z,58.55
2022-12-26T23:34:56.909Z,59.03
2022-12-26T23:37:23.502Z,59.32
2022-12-26T23:39:50.146Z,57.77
2022-12-26T23:42:16.690Z,58.75
2022-12-26T23:44:43.216Z,58.38
2022-12-26T23:47:10.546Z,59.63
2022-12-26T23:49:37.045Z,60.21
2022-12-26T23:52:03.675Z,60.68
2022-12-26T23:54:30.524Z,59.86
2022-12-26T23:56:57.590Z,58.61
2022-12-26T23:59:25.016Z,58.61
